Terminal Aerodrome Forecast
Issued by NWS

Current Version | Previous Version | Graphics & Text | Print | Product List | Glossary On
Versions: 1 2 3 4 5 6 7 8 9 10 11 12 13 14 15 16 17
000
FTUS41 KILN 211028 AAA
TAFLCK
TAF AMD
KLCK 211028Z 2110/2206 28010KT P6SM BKN025
     FM211500 28012G18KT P6SM BKN035
     FM212300 29008KT P6SM SCT250=

USA.gov is the U.S. government's official web portal to all federal, state and local government web resources and services.